createdAt,value
2022-10-03T00:02:36.564Z,9.60
2022-10-03T00:07:43.346Z,9.60
2022-10-03T00:13:19.885Z,9.70
2022-10-03T00:18:35.749Z,9.80
2022-10-03T00:23:43.675Z,9.90
2022-10-03T00:29:07.094Z,9.90
2022-10-03T00:34:33.202Z,9.90
2022-10-03T00:39:56.765Z,10.00
2022-10-03T00:45:34.014Z,10.00
2022-10-03T00:51:01.462Z,10.00
2022-10-03T00:56:42.905Z,9.90
2022-10-03T01:01:48.899Z,10.00
2022-10-03T01:07:10.984Z,10.00
2022-10-03T01:12:35.546Z,10.10
2022-10-03T01:18:10.046Z,10.20
2022-10-03T01:23:34.844Z,10.20
2022-10-03T01:29:02.486Z,10.30
2022-10-03T01:34:18.754Z,10.30
2022-10-03T01:39:58.893Z,10.30
2022-10-03T01:45:15.983Z,10.30
2022-10-03T01:50:37.696Z,10.40
2022-10-03T01:56:05.105Z,10.40
2022-10-03T02:01:15.976Z,10.50
2022-10-03T02:06:28.163Z,10.50
2022-10-03T02:11:41.003Z,10.60
2022-10-03T02:17:09.324Z,10.60
2022-10-03T02:22:56.744Z,10.70
2022-10-03T02:28:12.144Z,10.70
2022-10-03T02:33:21.149Z,10.70
2022-10-03T02:38:45.686Z,10.70
2022-10-03T02:44:16.045Z,10.70
2022-10-03T02:49:48.527Z,10.80
2022-10-03T02:54:58.626Z,10.80
2022-10-03T03:00:09.865Z,10.90
2022-10-03T03:05:28.123Z,10.90
2022-10-03T03:10:45.106Z,10.90
2022-10-03T03:16:21.268Z,11.00
2022-10-03T03:21:40.383Z,11.00
2022-10-03T03:26:46.943Z,11.00
2022-10-03T03:32:39.386Z,11.00
2022-10-03T03:38:03.634Z,11.10
2022-10-03T03:43:38.036Z,11.10
2022-10-03T03:49:02.409Z,11.10
2022-10-03T03:54:36.040Z,11.10
2022-10-03T03:59:50.765Z,11.20
2022-10-03T04:05:27.129Z,11.20
2022-10-03T04:10:53.978Z,11.10
2022-10-03T04:16:46.003Z,11.20
2022-10-03T04:21:57.703Z,11.20
2022-10-03T04:27:43.170Z,11.20
2022-10-03T04:33:02.220Z,11.20
2022-10-03T04:38:44.950Z,11.30
2022-10-03T04:44:06.726Z,11.30
2022-10-03T04:49:24.631Z,11.30
2022-10-03T04:54:31.660Z,11.40
2022-10-03T04:59:59.929Z,11.40
2022-10-03T05:05:28.072Z,11.40
2022-10-03T05:10:40.657Z,11.30
2022-10-03T05:16:08.246Z,11.30
2022-10-03T05:21:17.250Z,11.30
2022-10-03T05:26:50.151Z,11.30
2022-10-03T05:32:00.295Z,11.20
2022-10-03T05:37:25.121Z,11.10
2022-10-03T05:42:52.340Z,11.20
2022-10-03T05:48:14.103Z,11.10
2022-10-03T05:53:29.651Z,11.20
2022-10-03T05:58:54.932Z,11.20
2022-10-03T06:04:05.923Z,11.30
2022-10-03T06:09:35.962Z,11.40
2022-10-03T06:14:45.208Z,11.50
2022-10-03T06:19:51.690Z,11.60
2022-10-03T06:25:22.584Z,11.60
2022-10-03T06:30:47.273Z,11.70
2022-10-03T06:36:24.484Z,11.80
2022-10-03T06:41:40.057Z,11.80
2022-10-03T06:47:23.690Z,11.90
2022-10-03T06:53:03.731Z,11.90
2022-10-03T06:58:25.465Z,12.10
2022-10-03T07:03:41.338Z,12.30
2022-10-03T07:08:45.928Z,12.50
2022-10-03T07:14:19.099Z,12.50
2022-10-03T07:19:46.158Z,12.60
2022-10-03T07:25:21.190Z,12.70
2022-10-03T07:30:28.275Z,12.80
2022-10-03T07:36:31.630Z,13.00
2022-10-03T07:42:01.070Z,13.00
2022-10-03T07:47:42.291Z,13.10
2022-10-03T07:53:10.757Z,13.20
2022-10-03T07:58:34.593Z,13.30
2022-10-03T08:03:55.640Z,13.50
2022-10-03T08:09:17.501Z,13.60
2022-10-03T08:14:50.108Z,13.60
2022-10-03T08:20:08.011Z,13.70
2022-10-03T08:25:32.344Z,13.70
2022-10-03T08:30:54.326Z,13.90
2022-10-03T08:36:39.275Z,14.00
2022-10-03T08:42:14.732Z,13.90
2022-10-03T08:48:06.016Z,13.70
2022-10-03T08:53:37.504Z,13.30
2022-10-03T08:58:44.065Z,13.20
2022-10-03T09:04:10.410Z,13.00
2022-10-03T09:09:42.848Z,12.90
2022-10-03T09:14:48.659Z,13.10
2022-10-03T09:20:16.995Z,13.10
2022-10-03T09:25:45.482Z,12.90
2022-10-03T09:31:10.190Z,12.70
2022-10-03T09:36:32.509Z,12.50
2022-10-03T09:42:02.232Z,12.40
2022-10-03T09:47:23.509Z,12.70
2022-10-03T09:52:38.742Z,13.10
2022-10-03T09:58:06.970Z,13.50
2022-10-03T10:03:28.223Z,13.70
2022-10-03T10:08:40.248Z,13.50
2022-10-03T10:14:10.503Z,13.40
2022-10-03T10:19:40.129Z,13.40
2022-10-03T10:25:25.493Z,13.30
2022-10-03T10:31:02.333Z,13.30
2022-10-03T10:36:43.918Z,13.20
2022-10-03T10:42:02.198Z,13.40
2022-10-03T10:47:25.047Z,13.40
2022-10-03T10:52:49.680Z,13.80
2022-10-03T10:58:30.288Z,13.90
2022-10-03T11:03:55.064Z,14.20
2022-10-03T11:09:22.569Z,14.60
2022-10-03T11:15:00.213Z,14.90
2022-10-03T11:20:37.402Z,15.10
2022-10-03T11:25:54.448Z,15.50
2022-10-03T11:31:20.310Z,15.70
2022-10-03T11:36:35.221Z,15.60
2022-10-03T11:42:02.810Z,15.20
2022-10-03T11:47:35.561Z,15.20
2022-10-03T11:53:07.368Z,15.30
2022-10-03T11:58:34.525Z,15.70
2022-10-03T12:03:49.641Z,15.80
2022-10-03T12:09:23.297Z,15.90
2022-10-03T12:14:31.905Z,15.70
2022-10-03T12:19:43.563Z,15.70
2022-10-03T12:24:48.300Z,15.60
2022-10-03T12:30:03.110Z,15.50
2022-10-03T12:35:26.139Z,15.30
2022-10-03T12:40:44.398Z,15.30
2022-10-03T12:46:00.645Z,15.20
2022-10-03T12:51:37.340Z,15.00
2022-10-03T12:56:56.717Z,14.80
2022-10-03T13:02:45.571Z,14.60
2022-10-03T13:08:02.565Z,14.50
2022-10-03T13:13:32.926Z,14.30
2022-10-03T13:18:59.541Z,14.30
2022-10-03T13:24:13.888Z,14.70
2022-10-03T13:29:30.696Z,15.10
2022-10-03T13:34:56.051Z,15.30
2022-10-03T13:40:09.614Z,15.50
2022-10-03T13:45:25.830Z,15.20
2022-10-03T13:50:59.300Z,14.90
2022-10-03T13:56:31.030Z,14.70
2022-10-03T14:01:49.143Z,14.90
2022-10-03T14:07:02.844Z,15.10
2022-10-03T14:12:51.056Z,15.00
2022-10-03T14:18:00.840Z,15.20
2022-10-03T14:23:22.748Z,15.40
2022-10-03T14:28:47.107Z,15.30
2022-10-03T14:34:09.407Z,14.90
2022-10-03T14:39:38.621Z,15.10
2022-10-03T14:44:46.436Z,15.20
2022-10-03T14:49:59.578Z,15.30
2022-10-03T14:55:14.056Z,15.10
2022-10-03T15:00:29.497Z,14.90
2022-10-03T15:05:36.839Z,14.50
2022-10-03T15:10:41.157Z,14.30
2022-10-03T15:15:48.183Z,14.10
2022-10-03T15:20:55.189Z,14.10
2022-10-03T15:25:59.360Z,14.10
2022-10-03T15:31:15.162Z,14.10
2022-10-03T15:36:43.169Z,14.10
2022-10-03T15:42:15.769Z,14.00
2022-10-03T15:47:23.559Z,13.80
2022-10-03T15:52:43.299Z,13.70
2022-10-03T15:57:53.424Z,13.50
2022-10-03T16:03:37.520Z,13.30
2022-10-03T16:09:00.000Z,13.10
2022-10-03T16:14:18.853Z,13.00
2022-10-03T16:19:55.797Z,12.80
2022-10-03T16:25:19.116Z,12.70
2022-10-03T16:30:26.980Z,12.60
2022-10-03T16:35:44.931Z,12.60
2022-10-03T16:40:55.659Z,12.60
2022-10-03T16:46:04.441Z,12.70
2022-10-03T16:51:33.360Z,12.70
2022-10-03T16:56:45.329Z,12.70
2022-10-03T17:01:57.064Z,12.60
2022-10-03T17:07:04.799Z,12.40
2022-10-03T17:12:15.161Z,12.30
2022-10-03T17:17:29.610Z,12.10
2022-10-03T17:22:45.350Z,12.00
2022-10-03T17:27:51.172Z,11.90
2022-10-03T17:33:01.110Z,11.80
2022-10-03T17:38:47.750Z,11.70
2022-10-03T17:43:59.371Z,11.70
2022-10-03T17:49:32.165Z,11.50
2022-10-03T17:54:39.850Z,11.50
2022-10-03T17:59:55.970Z,11.50
2022-10-03T18:05:17.320Z,11.40
2022-10-03T18:10:34.019Z,11.40
2022-10-03T18:15:44.019Z,11.30
2022-10-03T18:21:16.410Z,11.30
2022-10-03T18:26:43.099Z,11.30
2022-10-03T18:31:52.827Z,11.10
2022-10-03T18:36:57.784Z,11.10
2022-10-03T18:42:03.370Z,11.00
2022-10-03T18:47:34.470Z,10.90
2022-10-03T18:52:47.147Z,10.80
2022-10-03T18:58:02.168Z,10.80
2022-10-03T19:03:19.650Z,10.70
2022-10-03T19:08:39.329Z,10.60
2022-10-03T19:13:55.026Z,10.50
2022-10-03T19:19:16.232Z,10.30
2022-10-03T19:24:56.587Z,10.30
2022-10-03T19:29:58.480Z,10.30
2022-10-03T19:35:06.071Z,10.20
2022-10-03T19:40:45.678Z,10.20
2022-10-03T19:45:54.785Z,10.10
2022-10-03T19:51:21.463Z,10.10
2022-10-03T19:56:34.568Z,10.00
2022-10-03T20:01:48.784Z,10.10
2022-10-03T20:06:54.258Z,10.00
2022-10-03T20:12:12.396Z,10.00
2022-10-03T20:17:24.168Z,10.00
2022-10-03T20:22:31.718Z,10.00
2022-10-03T20:27:46.660Z,10.00
2022-10-03T20:32:51.570Z,10.10
2022-10-03T20:38:13.588Z,10.20
2022-10-03T20:43:20.672Z,10.20
2022-10-03T20:48:29.574Z,10.30
2022-10-03T20:53:33.552Z,10.40
2022-10-03T20:58:50.983Z,10.40
2022-10-03T21:04:19.995Z,10.50
2022-10-03T21:09:51.169Z,10.50
2022-10-03T21:15:03.362Z,10.50
2022-10-03T21:20:12.319Z,10.60
2022-10-03T21:25:29.709Z,10.60
2022-10-03T21:30:52.472Z,10.60
2022-10-03T21:36:15.060Z,10.70
2022-10-03T21:41:58.108Z,10.80
2022-10-03T21:47:42.740Z,10.90
2022-10-03T21:52:59.921Z,11.00
2022-10-03T21:58:24.670Z,11.10
2022-10-03T22:03:35.850Z,11.10
2022-10-03T22:08:43.700Z,11.10
2022-10-03T22:14:16.942Z,11.10
2022-10-03T22:19:27.777Z,11.00
2022-10-03T22:24:54.839Z,10.90
2022-10-03T22:30:09.273Z,10.80
2022-10-03T22:35:40.509Z,10.80
2022-10-03T22:40:46.441Z,10.70
2022-10-03T22:45:52.515Z,10.60
2022-10-03T22:50:57.131Z,10.60
2022-10-03T22:56:20.980Z,10.60
2022-10-03T23:01:25.090Z,10.60
2022-10-03T23:07:09.330Z,10.70
2022-10-03T23:12:13.220Z,10.70
2022-10-03T23:17:47.758Z,10.80
2022-10-03T23:22:56.450Z,10.80
2022-10-03T23:28:12.022Z,10.80
2022-10-03T23:33:39.309Z,10.80
2022-10-03T23:38:42.438Z,10.80
2022-10-03T23:43:45.524Z,10.80
2022-10-03T23:49:00.779Z,10.80
2022-10-03T23:54:06.630Z,10.90
2022-10-03T23:59:15.595Z,10.90
